Aérodrome :
LOGIN :

S'inscrire | Disclaimer

   EN    FR    IT 

 










Légende :    VFR   VFR Marginal   IFR   IFR Intensif   IFR Très Intensif
Visi : 
Plafond : 
>= 8 km
>= 3000ft
5 à 8 km
1000 à 3000 ft
1500m à 5 km
500 à 1000 ft
800 à 1500m
200 à 500 ft
< 800m
< 200 ft
Symboles :   Orages  Brouillard  Fortes neiges  Fortes précipitations  Vent > 20 kt
SIGMETs :   Divers  Orages  Givrage  Turbulence  Onde Orograph.  Cendres Volcan.







- Altitude de l'aérodrome : 1768 ft


LEHC - Huesca Pirineos

DERNIER METAR :
  • 191300Z 23005KT 200V260 9999 FEW040 20/14 Q1017

METARs EXPIRÉS :
  • 191230Z 21005KT 150V260 9999 FEW045 20/14 Q1017
  • 191200Z VRB03KT 9999 FEW042 SCT056 21/14 Q1017
  • 191130Z VRB01KT 9999 FEW043 21/12 Q1017
  • 191100Z VRB02KT 9999 FEW044 20/12 Q1017
  • 191030Z 07004KT 030V130 9999 FEW050 19/12 Q1017

TAF TAF LEHC
Valide du 19 à 09h jusqu'au 20 à 09h UTC


190800Z 1909/2009 04005KT 9999 FEW030 TX23/1913Z TN14/2006Z
BECMG 1910/1913 11012KT
TEMPO 1910/1924 4000 SHRA FEW030TCU BKN034
BECMG 1917/1920 09007KT
Pas de NOTAMs connus pour ce terrain.
3 SIGMETs publiés pour la FIR Madrid (LECM) :
 
Turbulence forte
LECM SIGMET 7 VALID 191300/191700 LEVA
LECM MADRID FIR/UIR SEV TURB OBS AT 1257Z WI N3551 W00648 - N3941 W00117 - N3757 W00151 - N3551 W00459 - N3551 W00648 FL200/340 MOV ENE WKN=
Orages noyés dans la masse
LECM SIGMET 6 VALID 191200/191500 LEVA
LECM MADRID FIR/UIR EMBD TS OBS AT 1153Z S OF LINE N3628 W00501 - N3638 W00326 TOP FL320 MOV ENE NC=
Annulation du SIGMET 18
LECM SIGMET 1 VALID 190150/192200 LEVA
LECM MADRID UIR CNL SIGMET 18 VALID 182039/192200=



MET'MAP, la Météo Aéronautique d'un coup d'oeil ! - Copyright ORBIFLY Décembre 2007 - Disclaimer

ORBIFLY MET'MAP TEAM :

Programmation & Développement : Alexandra Zaïnal
Conception & Développement : Baudouin d'Aumeries
Co-Programmation & Développement : Marc-Olivier Méhu
Soutien technique & logistique : Manuel Goepfert

Contact : metmap@orbifly.com




SOURCES & CREDITS :

   NOAA